Time;durP1;ratioP1;P1;durP2;ratioP2;P2;SDS_P1;SDS_P2;PMS_P1;PMS_P2;Temp;Humidity;BMP_temperature;BMP_pressure;BME280_temperature;BME280_humidity;BME280_pressure;Samples;Min_cycle;Max_cycle;Signal;HPM_P1;HPM_P2
2022/10/02 00:00:31;;;;;;;1.30;1.23;;;14.00;98.00;;;;;;5093820;28;20695;-67
2022/10/02 00:03:06;;;;;;;1.20;1.03;;;14.00;98.00;;;;;;5094023;28;20543;-67
2022/10/02 00:05:38;;;;;;;1.60;1.50;;;14.00;98.00;;;;;;5093882;28;20486;-67
2022/10/02 00:08:10;;;;;;;1.63;1.30;;;14.00;98.00;;;;;;5093793;28;20461;-67
2022/10/02 00:10:43;;;;;;;3.20;1.30;;;14.10;98.00;;;;;;5093838;28;20874;-67
2022/10/02 00:13:16;;;;;;;2.00;1.77;;;14.10;98.00;;;;;;5093806;28;20459;-67
2022/10/02 00:15:44;;;;;;;1.20;1.13;;;14.10;98.00;;;;;;5093789;28;20868;-67
2022/10/02 00:18:18;;;;;;;2.67;1.27;;;14.10;98.00;;;;;;5093496;28;20504;-67
2022/10/02 00:20:54;;;;;;;1.77;1.30;;;14.10;98.00;;;;;;5093701;28;20514;-67
2022/10/02 00:23:27;;;;;;;1.37;1.13;;;14.10;98.00;;;;;;5093473;28;20520;-67
2022/10/02 00:26:02;;;;;;;1.40;1.20;;;14.00;98.00;;;;;;5093323;28;20494;-67
2022/10/02 00:28:35;;;;;;;1.30;1.30;;;14.10;98.00;;;;;;5093461;28;20478;-67
2022/10/02 00:31:22;;;;;;;10.53;1.50;;;14.10;98.00;;;;;;5093277;28;20467;-67
2022/10/02 00:34:00;;;;;;;1.30;1.10;;;14.20;98.00;;;;;;5093350;28;20491;-67
2022/10/02 00:36:39;;;;;;;3.87;1.87;;;14.20;98.00;;;;;;5093332;28;20883;-67
2022/10/02 00:39:18;;;;;;;1.30;1.20;;;14.30;98.00;;;;;;5093359;28;20457;-67
2022/10/02 00:42:15;;;;;;;1.57;1.40;;;14.30;98.00;;;;;;5059907;28;20444;-67
2022/10/02 00:44:51;;;;;;;1.50;1.20;;;14.20;98.00;;;;;;5066426;28;20834;-67
2022/10/02 00:47:28;;;;;;;1.70;1.27;;;14.00;98.00;;;;;;5075120;28;20941;-67
2022/10/02 00:50:14;;;;;;;1.70;1.20;;;14.10;98.00;;;;;;5092987;28;20476;-67
2022/10/02 00:52:56;;;;;;;3.67;1.30;;;14.00;98.00;;;;;;5093098;28;20457;-67
2022/10/02 00:55:38;;;;;;;1.23;1.20;;;13.90;98.00;;;;;;5075315;28;20456;-67
2022/10/02 00:58:25;;;;;;;1.50;1.33;;;13.90;98.00;;;;;;5093023;28;20491;-67
2022/10/02 01:01:00;;;;;;;1.50;1.27;;;13.90;98.00;;;;;;5092669;28;20472;-67
2022/10/02 01:03:34;;;;;;;1.50;1.40;;;13.90;98.00;;;;;;5092949;28;20465;-67
2022/10/02 01:06:02;;;;;;;1.10;1.00;;;13.90;98.00;;;;;;5092719;28;20494;-67
2022/10/02 01:08:29;;;;;;;1.20;1.10;;;13.80;98.00;;;;;;5092902;28;20896;-67
2022/10/02 01:10:58;;;;;;;1.30;1.20;;;13.80;98.00;;;;;;5092549;28;20455;-67
2022/10/02 01:13:25;;;;;;;1.20;1.10;;;13.90;98.00;;;;;;5092745;28;20518;-67
2022/10/02 01:15:55;;;;;;;1.30;1.20;;;13.80;98.00;;;;;;5092710;28;20453;-66
2022/10/02 01:18:23;;;;;;;1.43;1.20;;;13.80;98.00;;;;;;5092809;28;20482;-67
2022/10/02 01:20:52;;;;;;;4.90;1.43;;;13.70;98.00;;;;;;5092094;28;20875;-67
2022/10/02 01:23:31;;;;;;;1.60;1.40;;;13.70;98.00;;;;;;5092522;28;20550;-67
2022/10/02 01:26:00;;;;;;;2.13;1.30;;;13.80;98.00;;;;;;5074080;28;20489;-67
2022/10/02 01:28:27;;;;;;;1.40;1.20;;;13.90;98.00;;;;;;5092220;28;20451;-67
2022/10/02 01:31:01;;;;;;;1.70;1.10;;;13.90;98.00;;;;;;5092278;28;20832;-67
2022/10/02 01:33:28;;;;;;;1.70;1.33;;;14.00;98.00;;;;;;5092353;28;20468;-67
2022/10/02 01:35:55;;;;;;;1.20;1.20;;;14.00;98.00;;;;;;5092116;28;20467;-67
2022/10/02 01:38:24;;;;;;;1.10;1.00;;;14.00;98.00;;;;;;5091950;28;20456;-67
2022/10/02 01:40:51;;;;;;;1.20;1.10;;;14.00;98.00;;;;;;5092038;28;20540;-67
2022/10/02 01:43:23;;;;;;;1.50;1.27;;;14.00;98.00;;;;;;5092354;28;20796;-67
2022/10/02 01:45:58;;;;;;;1.90;1.47;;;13.90;98.00;;;;;;5092274;28;20882;-67
2022/10/02 01:48:38;;;;;;;1.10;1.10;;;14.00;98.00;;;;;;5090630;28;20747;-67
2022/10/02 01:51:23;;;;;;;1.23;1.10;;;14.00;98.00;;;;;;5091979;28;20551;-67
2022/10/02 01:54:07;;;;;;;1.67;1.30;;;14.00;98.00;;;;;;5088227;28;20452;-67
2022/10/02 01:56:40;;;;;;;1.30;1.20;;;13.90;98.00;;;;;;5091239;28;20452;-67
2022/10/02 01:59:22;;;;;;;1.10;1.10;;;13.90;98.00;;;;;;5091865;28;20939;-67
2022/10/02 02:01:58;;;;;;;1.50;1.20;;;13.90;98.00;;;;;;5091817;28;20462;-67
2022/10/02 02:04:32;;;;;;;1.20;1.10;;;13.90;98.00;;;;;;5091923;28;20860;-67
2022/10/02 02:07:11;;;;;;;1.40;1.20;;;13.90;98.00;;;;;;5091607;28;20461;-67
2022/10/02 02:09:41;;;;;;;4.80;1.30;;;14.00;98.00;;;;;;5091784;28;20935;-67
2022/10/02 02:12:14;;;;;;;1.30;1.30;;;14.10;98.00;;;;;;5073749;28;20459;-67
2022/10/02 02:14:47;;;;;;;1.70;1.30;;;14.00;98.00;;;;;;5091795;28;20486;-67
2022/10/02 02:17:20;;;;;;;1.70;1.33;;;14.00;98.00;;;;;;5091531;28;20455;-67
2022/10/02 02:19:50;;;;;;;1.50;1.40;;;14.00;98.00;;;;;;5091605;28;20457;-67
2022/10/02 02:22:23;;;;;;;1.40;1.30;;;13.90;98.00;;;;;;5091741;28;20815;-67
2022/10/02 02:24:55;;;;;;;1.90;1.50;;;13.80;98.00;;;;;;5091616;28;20463;-67
2022/10/02 02:27:27;;;;;;;1.30;1.20;;;13.90;98.00;;;;;;5091382;28;20494;-67
2022/10/02 02:30:01;;;;;;;1.47;1.43;;;13.90;98.00;;;;;;5091350;28;20466;-67
2022/10/02 02:32:33;;;;;;;1.60;1.27;;;14.00;98.00;;;;;;5091329;28;20459;-67
2022/10/02 02:35:06;;;;;;;1.20;1.20;;;14.00;98.00;;;;;;5073238;28;20521;-67
2022/10/02 02:37:37;;;;;;;1.93;1.60;;;13.90;98.00;;;;;;5091363;28;20540;-67
2022/10/02 02:40:08;;;;;;;1.40;1.20;;;14.00;98.00;;;;;;5073253;28;20468;-67
2022/10/02 02:42:42;;;;;;;1.20;1.10;;;14.00;98.00;;;;;;5091383;28;20459;-67
2022/10/02 02:45:16;;;;;;;1.47;1.40;;;14.00;98.00;;;;;;5091116;28;20487;-67
2022/10/02 02:47:49;;;;;;;1.20;1.00;;;14.00;98.00;;;;;;5091271;28;20450;-67
2022/10/02 02:50:21;;;;;;;1.30;1.23;;;14.00;98.00;;;;;;5091202;28;21069;-67
2022/10/02 02:52:54;;;;;;;1.27;1.27;;;14.00;98.00;;;;;;5091213;28;21033;-67
2022/10/02 02:55:26;;;;;;;1.57;1.30;;;14.00;98.00;;;;;;5091413;28;20868;-67
2022/10/02 02:57:57;;;;;;;1.40;1.20;;;14.10;98.00;;;;;;5057539;28;20455;-67
2022/10/02 03:00:26;;;;;;;2.27;1.37;;;14.10;98.00;;;;;;5091242;28;20542;-67
2022/10/02 03:02:54;;;;;;;2.00;1.70;;;14.10;98.00;;;;;;5091271;28;20461;-67
2022/10/02 03:05:23;;;;;;;1.37;1.33;;;14.10;98.00;;;;;;5073263;28;20562;-67
2022/10/02 03:07:54;;;;;;;1.43;1.20;;;14.20;98.00;;;;;;5073769;28;20499;-67
2022/10/02 03:10:34;;;;;;;2.30;1.33;;;14.20;98.00;;;;;;5095011;28;20513;-67
2022/10/02 03:13:10;;;;;;;1.80;1.30;;;14.20;98.00;;;;;;5095017;28;20863;-67
2022/10/02 03:15:53;;;;;;;1.20;1.20;;;14.20;98.00;;;;;;5077503;28;20456;-67
2022/10/02 03:18:39;;;;;;;1.20;1.20;;;14.20;98.00;;;;;;5094737;28;20481;-67
2022/10/02 03:21:12;;;;;;;1.50;1.33;;;14.30;98.00;;;;;;5094633;28;20942;-67
2022/10/02 03:23:53;;;;;;;1.10;1.00;;;14.30;98.00;;;;;;5094816;28;20448;-67
2022/10/02 03:26:30;;;;;;;1.27;1.03;;;14.40;98.00;;;;;;5094478;28;20482;-68
2022/10/02 03:29:01;;;;;;;4.13;1.50;;;14.40;98.00;;;;;;5094792;28;20506;-67
2022/10/02 03:31:33;;;;;;;1.30;1.20;;;14.20;98.00;;;;;;5094579;28;20450;-67
2022/10/02 03:34:03;;;;;;;1.20;1.20;;;14.10;98.00;;;;;;5094670;28;20453;-67
2022/10/02 03:36:32;;;;;;;3.00;1.93;;;14.10;98.00;;;;;;5093933;28;20467;-67
2022/10/02 03:39:05;;;;;;;2.17;1.40;;;14.10;98.00;;;;;;5094367;28;20462;-67
2022/10/02 03:41:33;;;;;;;1.40;1.20;;;14.10;98.00;;;;;;5094457;28;20491;-67
2022/10/02 03:44:00;;;;;;;1.30;1.20;;;14.10;98.00;;;;;;5094653;28;20852;-67
2022/10/02 03:46:29;;;;;;;1.27;1.20;;;14.00;98.00;;;;;;5094361;28;20535;-67
2022/10/02 03:48:56;;;;;;;2.40;1.17;;;14.10;98.00;;;;;;5094386;28;20445;-67
2022/10/02 03:51:23;;;;;;;1.70;1.33;;;14.10;98.00;;;;;;5094502;28;20827;-67
2022/10/02 03:53:50;;;;;;;1.83;1.20;;;14.10;98.00;;;;;;5094249;28;20515;-67
2022/10/02 03:56:25;;;;;;;1.20;1.20;;;14.10;98.00;;;;;;5076420;28;20464;-68
2022/10/02 03:58:57;;;;;;;1.20;1.20;;;14.10;98.00;;;;;;5094286;28;20452;-67
2022/10/02 04:01:28;;;;;;;1.57;1.30;;;14.10;98.00;;;;;;5093924;28;20477;-67
2022/10/02 04:04:01;;;;;;;1.60;1.53;;;14.10;98.00;;;;;;5093998;28;20971;-67
2022/10/02 04:06:40;;;;;;;3.37;1.30;;;14.00;98.00;;;;;;5093752;28;20520;-67
2022/10/02 04:09:12;;;;;;;1.40;1.10;;;14.10;98.00;;;;;;5093843;28;20513;-67
2022/10/02 04:11:43;;;;;;;1.90;1.80;;;14.00;98.00;;;;;;5093890;28;20460;-66
2022/10/02 04:14:18;;;;;;;1.20;1.20;;;14.10;98.00;;;;;;5076216;28;20458;-67
2022/10/02 04:16:51;;;;;;;1.40;1.27;;;14.10;98.00;;;;;;5059743;28;20565;-67
2022/10/02 04:19:26;;;;;;;1.77;1.30;;;14.10;98.00;;;;;;5093044;28;20465;-67
2022/10/02 04:21:56;;;;;;;1.87;1.50;;;14.00;98.00;;;;;;5076294;28;20459;-68
2022/10/02 04:24:30;;;;;;;1.50;1.30;;;14.10;98.00;;;;;;5093684;28;20462;-67
2022/10/02 04:27:05;;;;;;;1.47;1.30;;;14.20;98.00;;;;;;5075471;28;20573;-67
2022/10/02 04:29:38;;;;;;;1.30;1.23;;;14.10;98.00;;;;;;5093525;28;20519;-67
2022/10/02 04:32:14;;;;;;;1.60;1.20;;;14.00;98.00;;;;;;5093051;28;20521;-67
2022/10/02 04:34:43;;;;;;;2.47;1.53;;;13.90;98.00;;;;;;5075911;28;20453;-67
2022/10/02 04:37:32;;;;;;;3.77;1.50;;;14.00;98.00;;;;;;5093316;28;20462;-67
2022/10/02 04:40:23;;;;;;;1.57;1.40;;;14.00;98.00;;;;;;5083529;28;20475;-67
2022/10/02 04:43:09;;;;;;;1.80;1.40;;;14.00;98.00;;;;;;5093067;28;20516;-67
2022/10/02 04:45:57;;;;;;;1.30;1.20;;;13.90;98.00;;;;;;5093045;28;20517;-67
2022/10/02 04:48:49;;;;;;;1.33;1.27;;;14.00;98.00;;;;;;5076734;28;20859;-67
2022/10/02 04:51:33;;;;;;;1.93;1.63;;;14.00;98.00;;;;;;5093105;28;20956;-67
2022/10/02 04:54:20;;;;;;;1.60;1.10;;;14.00;98.00;;;;;;5093145;28;20474;-67
2022/10/02 04:57:00;;;;;;;1.30;1.10;;;13.90;98.00;;;;;;5093292;28;20462;-67
2022/10/02 04:59:39;;;;;;;1.20;1.20;;;14.00;98.00;;;;;;5093250;28;20459;-67
2022/10/02 05:02:22;;;;;;;1.40;1.13;;;14.00;98.00;;;;;;5093057;28;20503;-67
2022/10/02 05:05:04;;;;;;;1.30;1.20;;;13.90;98.00;;;;;;5092806;28;20954;-67
2022/10/02 05:07:53;;;;;;;1.37;1.33;;;13.90;98.00;;;;;;5092524;28;21008;-67
2022/10/02 05:10:44;;;;;;;1.17;1.13;;;13.90;98.00;;;;;;5092655;28;20951;-67
2022/10/02 05:13:25;;;;;;;1.43;1.40;;;13.90;98.00;;;;;;5092572;28;20458;-67
2022/10/02 05:16:16;;;;;;;3.27;1.10;;;14.00;98.00;;;;;;5092451;28;20459;-67
2022/10/02 05:19:12;;;;;;;1.20;1.20;;;14.00;98.00;;;;;;5092621;28;20863;-67
2022/10/02 05:22:06;;;;;;;1.60;1.27;;;14.00;98.00;;;;;;5086423;28;20535;-67
2022/10/02 05:24:46;;;;;;;1.67;1.50;;;14.00;98.00;;;;;;5092062;28;20906;-67
2022/10/02 05:27:28;;;;;;;1.10;1.00;;;13.90;98.00;;;;;;5092105;28;20900;-67
2022/10/02 05:30:06;;;;;;;2.47;1.73;;;13.80;98.00;;;;;;5092429;28;20457;-67
2022/10/02 05:32:57;;;;;;;1.13;1.10;;;13.90;98.00;;;;;;5092070;28;20476;-68
2022/10/02 05:35:38;;;;;;;2.13;1.30;;;13.90;98.00;;;;;;5091681;28;20962;-67
2022/10/02 05:38:18;;;;;;;1.30;1.20;;;13.80;98.00;;;;;;5092159;28;20466;-67
2022/10/02 05:40:56;;;;;;;1.47;1.20;;;13.70;98.00;;;;;;5092151;28;20516;-67
2022/10/02 05:43:29;;;;;;;1.30;1.20;;;13.60;98.00;;;;;;5092277;28;20462;-67
2022/10/02 05:46:01;;;;;;;1.50;1.30;;;13.60;98.00;;;;;;5074668;28;20470;-67
2022/10/02 05:48:34;;;;;;;1.53;1.23;;;13.50;98.00;;;;;;5092213;28;20945;-67
2022/10/02 05:51:10;;;;;;;1.40;1.40;;;13.50;98.00;;;;;;5091927;28;20457;-68
2022/10/02 05:53:41;;;;;;;1.53;1.30;;;13.50;98.00;;;;;;5091911;28;20450;-67
2022/10/02 05:56:14;;;;;;;1.30;1.17;;;13.50;98.00;;;;;;5092120;28;20820;-67
2022/10/02 05:58:50;;;;;;;1.43;1.33;;;13.40;98.00;;;;;;5092094;28;20556;-67
2022/10/02 06:01:23;;;;;;;1.47;1.43;;;13.40;98.00;;;;;;5074446;28;20465;-67
2022/10/02 06:03:55;;;;;;;1.23;1.10;;;13.40;98.00;;;;;;5091949;28;20608;-67
2022/10/02 06:06:30;;;;;;;1.67;1.30;;;13.40;98.00;;;;;;5091657;28;21006;-67
2022/10/02 06:09:03;;;;;;;1.50;1.20;;;13.40;98.00;;;;;;5091711;28;20455;-67
2022/10/02 06:11:39;;;;;;;1.30;1.10;;;13.50;98.00;;;;;;5091691;28;20449;-67
2022/10/02 06:14:14;;;;;;;1.80;1.30;;;13.50;98.00;;;;;;5091549;28;20483;-67
2022/10/02 06:16:46;;;;;;;1.23;1.20;;;13.50;98.00;;;;;;5091877;28;20456;-67
2022/10/02 06:19:19;;;;;;;1.20;1.20;;;13.50;98.00;;;;;;5091586;28;20524;-67
2022/10/02 06:21:50;;;;;;;1.60;1.40;;;13.50;98.00;;;;;;5091530;28;20455;-67
2022/10/02 06:24:25;;;;;;;2.27;1.50;;;13.50;98.00;;;;;;5074084;28;20870;-67
2022/10/02 06:26:59;;;;;;;1.43;1.37;;;13.50;98.00;;;;;;5073355;28;20483;-67
2022/10/02 06:29:31;;;;;;;1.20;1.13;;;13.60;98.00;;;;;;5091326;28;20559;-67
2022/10/02 06:32:13;;;;;;;1.40;1.30;;;13.70;98.00;;;;;;5091332;28;20449;-67
2022/10/02 06:34:40;;;;;;;3.20;1.40;;;13.70;98.00;;;;;;5091339;28;20486;-67
2022/10/02 06:37:30;;;;;;;1.60;1.27;;;13.70;98.00;;;;;;5091368;28;20527;-65
2022/10/02 06:40:12;;;;;;;1.60;1.10;;;13.70;98.00;;;;;;5089011;28;20451;-65
2022/10/02 06:42:51;;;;;;;1.30;1.20;;;13.70;98.00;;;;;;5091150;28;20831;-66
2022/10/02 06:45:25;;;;;;;1.40;1.30;;;13.80;98.00;;;;;;5095830;28;20510;-65
2022/10/02 06:48:01;;;;;;;4.23;1.40;;;13.80;98.00;;;;;;5061101;28;21012;-66
2022/10/02 06:50:41;;;;;;;1.93;1.40;;;13.80;98.00;;;;;;5095477;28;20551;-66
2022/10/02 06:53:20;;;;;;;2.80;1.90;;;13.90;98.00;;;;;;5095389;28;21142;-65
2022/10/02 06:55:58;;;;;;;1.40;1.30;;;14.00;98.00;;;;;;5095796;28;20465;-66
2022/10/02 06:58:47;;;;;;;3.20;2.20;;;13.90;98.00;;;;;;5095367;28;20441;-65
2022/10/02 07:01:25;;;;;;;3.60;2.83;;;13.90;98.00;;;;;;5077375;28;20484;-66
2022/10/02 07:04:19;;;;;;;3.33;2.00;;;13.80;98.00;;;;;;5095458;28;20545;-65
2022/10/02 07:06:57;;;;;;;1.53;1.30;;;13.90;98.00;;;;;;5071737;28;20494;-66
2022/10/02 07:09:48;;;;;;;2.70;1.73;;;14.00;98.00;;;;;;5095431;28;20463;-65
2022/10/02 07:12:45;;;;;;;2.40;1.97;;;14.10;98.00;;;;;;5095140;28;20454;-66
2022/10/02 07:15:47;;;;;;;3.20;1.97;;;14.10;98.00;;;;;;5079651;28;20575;-65
2022/10/02 07:18:24;;;;;;;6.40;2.87;;;14.20;98.00;;;;;;5076779;28;20533;-66
2022/10/02 07:20:59;;;;;;;5.97;2.73;;;14.10;98.00;;;;;;5077684;28;20461;-66
2022/10/02 07:23:41;;;;;;;8.83;2.37;;;14.00;98.00;;;;;;5094973;28;20784;-65
2022/10/02 07:26:27;;;;;;;4.80;2.23;;;13.90;98.00;;;;;;5094570;28;20478;-66
2022/10/02 07:29:04;;;;;;;4.40;2.00;;;13.90;98.00;;;;;;5094569;28;20479;-66
2022/10/02 07:31:45;;;;;;;3.33;1.50;;;14.00;98.00;;;;;;5094644;28;20532;-65
2022/10/02 07:34:27;;;;;;;2.17;1.73;;;14.10;98.00;;;;;;5094524;28;20904;-65
2022/10/02 07:37:05;;;;;;;1.80;1.73;;;14.30;98.00;;;;;;5094460;28;20527;-66
2022/10/02 07:39:45;;;;;;;2.17;1.60;;;14.20;98.00;;;;;;5094427;28;20456;-66
2022/10/02 07:42:34;;;;;;;2.03;1.70;;;14.10;98.00;;;;;;5094323;28;20955;-65
2022/10/02 07:45:19;;;;;;;5.03;1.90;;;14.00;98.00;;;;;;5091877;28;20866;-65
2022/10/02 07:48:20;;;;;;;10.37;2.37;;;13.90;98.00;;;;;;5094395;28;20529;-66
2022/10/02 07:51:01;;;;;;;1.30;1.10;;;13.90;98.00;;;;;;5094353;28;20473;-65
2022/10/02 07:53:38;;;;;;;3.37;1.80;;;14.00;98.00;;;;;;5094292;28;20989;-65
2022/10/02 07:56:09;;;;;;;3.37;1.93;;;14.00;98.00;;;;;;5093498;28;20496;-66
2022/10/02 07:58:43;;;;;;;2.93;1.70;;;14.00;98.00;;;;;;5094170;28;20447;-66
2022/10/02 08:01:13;;;;;;;4.70;2.37;;;14.10;98.00;;;;;;5094031;28;20551;-66
2022/10/02 08:03:48;;;;;;;3.20;1.73;;;14.00;98.00;;;;;;5094461;28;20448;-65
2022/10/02 08:06:17;;;;;;;2.13;1.70;;;14.00;98.00;;;;;;5086554;28;20466;-65
2022/10/02 08:08:50;;;;;;;2.00;1.60;;;14.00;98.00;;;;;;5072238;28;20501;-66
2022/10/02 08:11:22;;;;;;;2.30;1.80;;;14.00;98.00;;;;;;5071597;28;20454;-66
2022/10/02 08:13:55;;;;;;;2.60;2.10;;;14.10;98.00;;;;;;5071308;28;21026;-65
2022/10/02 08:16:27;;;;;;;5.30;2.30;;;14.30;98.00;;;;;;5071552;28;20878;-66
2022/10/02 08:19:04;;;;;;;2.47;2.00;;;14.30;98.00;;;;;;5062984;28;20468;-64
2022/10/02 08:21:35;;;;;;;3.70;1.70;;;14.10;98.00;;;;;;5071120;28;20460;-64
2022/10/02 08:24:06;;;;;;;5.37;2.00;;;14.10;98.00;;;;;;5070897;28;20454;-65
2022/10/02 08:26:41;;;;;;;2.60;1.80;;;14.10;98.00;;;;;;5053386;28;20473;-65
2022/10/02 08:29:14;;;;;;;3.40;2.33;;;14.10;98.00;;;;;;5070881;28;21046;-65
2022/10/02 08:31:41;;;;;;;2.40;1.60;;;14.00;98.00;;;;;;5075746;28;20499;-64
2022/10/02 08:34:17;;;;;;;1.97;1.50;;;14.00;98.00;;;;;;5052864;28;20457;-63
2022/10/02 08:37:26;;;;;;;2.33;1.60;;;14.00;98.00;;;;;;5070882;28;20460;-64
2022/10/02 08:40:40;;;;;;;3.53;1.80;;;14.10;98.00;;;;;;5070677;28;20480;-65
2022/10/02 08:43:40;;;;;;;1.80;1.33;;;14.10;98.00;;;;;;5067993;28;20462;-64
2022/10/02 08:46:55;;;;;;;1.40;1.30;;;14.30;98.00;;;;;;5062635;28;20696;-66
2022/10/02 08:50:14;;;;;;;1.40;1.40;;;14.40;98.00;;;;;;5033013;28;20982;-64
2022/10/02 08:53:23;;;;;;;1.80;1.40;;;14.50;98.00;;;;;;5023112;28;20456;-64
2022/10/02 08:56:11;;;;;;;2.13;1.73;;;14.40;98.00;;;;;;5070210;28;20462;-65
2022/10/02 08:59:20;;;;;;;1.93;1.57;;;14.50;98.00;;;;;;5070197;28;20959;-65
2022/10/02 09:02:26;;;;;;;2.00;1.63;;;14.50;98.00;;;;;;5054079;28;20996;-64
2022/10/02 09:05:43;;;;;;;1.80;1.80;;;14.70;98.00;;;;;;5039957;28;20462;-64
2022/10/02 09:09:02;;;;;;;1.83;1.40;;;14.90;98.00;;;;;;5049284;28;20513;-65
2022/10/02 09:11:59;;;;;;;2.47;1.60;;;14.80;98.00;;;;;;5067270;28;20459;-64
2022/10/02 09:14:49;;;;;;;9.27;1.80;;;14.90;98.00;;;;;;5070330;28;20468;-65
2022/10/02 09:17:36;;;;;;;1.50;1.40;;;14.90;98.00;;;;;;5069771;28;20614;-65
2022/10/02 09:20:27;;;;;;;2.23;1.87;;;15.00;98.00;;;;;;5067243;28;20461;-64
2022/10/02 09:23:42;;;;;;;1.90;1.50;;;15.10;98.00;;;;;;5054249;28;20464;-65
2022/10/02 09:26:20;;;;;;;2.13;1.60;;;15.30;98.00;;;;;;5046437;28;20467;-65
2022/10/02 09:29:20;;;;;;;1.70;1.70;;;15.40;98.00;;;;;;5051700;28;20497;-65
2022/10/02 09:32:41;;;;;;;1.90;1.53;;;15.50;98.00;;;;;;5059229;28;20497;-65
2022/10/02 09:35:50;;;;;;;2.23;1.70;;;15.70;98.00;;;;;;5068100;28;20457;-65
2022/10/02 09:38:52;;;;;;;9.30;4.03;;;15.80;98.00;;;;;;5069200;28;20520;-65
2022/10/02 09:41:50;;;;;;;3.00;2.00;;;15.90;98.00;;;;;;5069259;28;20463;-65
2022/10/02 09:44:42;;;;;;;2.23;2.10;;;15.90;98.00;;;;;;5054990;28;20963;-65
2022/10/02 09:47:52;;;;;;;2.37;1.80;;;15.90;98.00;;;;;;5068838;28;20467;-64
2022/10/02 09:50:48;;;;;;;2.80;2.07;;;16.00;98.00;;;;;;5059405;28;20454;-65
2022/10/02 09:53:43;;;;;;;2.80;1.60;;;15.90;98.00;;;;;;5071823;28;20490;-65
2022/10/02 09:56:45;;;;;;;2.10;1.60;;;15.80;98.00;;;;;;5068965;28;20804;-65
2022/10/02 09:59:54;;;;;;;1.80;1.60;;;15.70;98.00;;;;;;5072330;28;20957;-65
2022/10/02 10:03:00;;;;;;;2.77;1.90;;;15.50;98.00;;;;;;5051262;28;20479;-65
2022/10/02 10:05:52;;;;;;;1.80;1.60;;;15.40;98.00;;;;;;5040628;28;20462;-65
2022/10/02 10:08:46;;;;;;;1.60;1.50;;;15.40;98.00;;;;;;5069135;28;20488;-65
2022/10/02 10:11:38;;;;;;;3.70;2.67;;;15.40;98.00;;;;;;5053765;28;20461;-65
2022/10/02 10:14:29;;;;;;;9.17;3.67;;;15.40;98.00;;;;;;5041065;28;20454;-65
2022/10/02 10:17:38;;;;;;;2.87;1.90;;;15.50;98.00;;;;;;5053094;28;20469;-65
2022/10/02 10:20:50;;;;;;;2.77;1.80;;;15.40;98.00;;;;;;5063678;28;20825;-65
2022/10/02 10:23:50;;;;;;;2.33;1.57;;;15.50;98.00;;;;;;5071102;28;20455;-65
2022/10/02 10:26:53;;;;;;;9.20;4.40;;;15.60;98.00;;;;;;5071091;28;20453;-65
2022/10/02 10:29:58;;;;;;;3.30;2.00;;;15.60;98.00;;;;;;5071206;28;20842;-64
2022/10/02 10:33:05;;;;;;;1.23;1.20;;;15.60;98.00;;;;;;5040044;28;20450;-65
2022/10/02 10:36:08;;;;;;;1.80;1.60;;;15.70;98.00;;;;;;5071196;28;20961;-65
2022/10/02 10:38:54;;;;;;;4.30;2.60;;;15.70;98.00;;;;;;5071171;28;20452;-65
2022/10/02 10:41:56;;;;;;;1.60;1.50;;;15.70;98.00;;;;;;5070943;28;20462;-64
2022/10/02 10:45:04;;;;;;;1.60;1.00;;;15.70;98.00;;;;;;5070701;28;20460;-65
2022/10/02 10:48:02;;;;;;;1.50;1.30;;;15.80;98.00;;;;;;5070898;28;20550;-65
2022/10/02 10:50:44;;;;;;;1.13;1.07;;;15.80;98.00;;;;;;5058847;28;20455;-65
2022/10/02 10:53:36;;;;;;;1.30;1.23;;;15.80;98.00;;;;;;5070831;28;20887;-65
2022/10/02 10:56:36;;;;;;;3.70;1.27;;;15.80;98.00;;;;;;5068055;28;20463;-65
2022/10/02 10:59:35;;;;;;;1.50;1.40;;;15.90;98.00;;;;;;5070864;28;20483;-65
2022/10/02 11:02:37;;;;;;;1.73;1.30;;;15.90;98.00;;;;;;5070298;28;20462;-65
2022/10/02 11:05:40;;;;;;;1.63;1.50;;;15.90;98.00;;;;;;5044879;28;20449;-64
2022/10/02 11:08:31;;;;;;;1.50;1.50;;;16.00;98.00;;;;;;5065755;28;20564;-65
2022/10/02 11:11:05;;;;;;;1.50;1.40;;;15.90;98.00;;;;;;5070864;28;20469;-65
2022/10/02 11:13:47;;;;;;;1.37;1.37;;;15.80;98.00;;;;;;5071064;28;20552;-65
2022/10/02 11:16:35;;;;;;;1.20;1.20;;;15.70;98.00;;;;;;5070998;28;20469;-65
2022/10/02 11:19:26;;;;;;;1.53;1.37;;;15.60;98.00;;;;;;5053126;28;20457;-65
2022/10/02 11:22:28;;;;;;;1.40;1.30;;;15.40;98.00;;;;;;5070787;28;20533;-65
2022/10/02 11:25:25;;;;;;;3.20;1.90;;;15.40;98.00;;;;;;5053063;28;20459;-65
2022/10/02 11:28:17;;;;;;;2.23;1.73;;;15.50;98.00;;;;;;5055996;28;20531;-65
2022/10/02 11:30:53;;;;;;;1.57;1.20;;;15.50;98.00;;;;;;5074003;28;20451;-65
2022/10/02 11:33:39;;;;;;;1.17;1.10;;;15.60;98.00;;;;;;5074708;28;20467;-65
2022/10/02 11:36:40;;;;;;;1.80;1.20;;;15.60;98.00;;;;;;5074340;28;20489;-65
2022/10/02 11:39:31;;;;;;;1.20;1.00;;;15.60;98.00;;;;;;5074328;28;20461;-65
2022/10/02 11:42:26;;;;;;;2.83;1.20;;;15.60;98.00;;;;;;5074093;28;20463;-65
2022/10/02 11:45:20;;;;;;;1.60;1.40;;;15.70;98.00;;;;;;5074231;28;20460;-65
2022/10/02 11:48:11;;;;;;;1.13;1.07;;;15.80;98.00;;;;;;5058903;28;20485;-65
2022/10/02 11:51:10;;;;;;;1.70;1.10;;;15.90;98.00;;;;;;5074210;28;20469;-65
2022/10/02 11:53:54;;;;;;;1.20;1.10;;;16.00;98.00;;;;;;5074057;28;20473;-65
2022/10/02 11:56:44;;;;;;;2.40;1.37;;;16.10;98.00;;;;;;5074137;28;20463;-65
2022/10/02 11:59:37;;;;;;;1.47;1.43;;;16.20;98.00;;;;;;5073844;28;20529;-65
2022/10/02 12:02:14;;;;;;;1.50;1.20;;;16.20;98.00;;;;;;5071621;28;20877;-65
2022/10/02 12:05:02;;;;;;;1.20;1.20;;;16.20;98.00;;;;;;5073972;28;20463;-65
2022/10/02 12:07:41;;;;;;;1.20;1.10;;;16.10;98.00;;;;;;5073844;28;20462;-67
2022/10/02 12:10:31;;;;;;;1.10;1.10;;;16.00;98.00;;;;;;5057141;28;20471;-67
2022/10/02 12:13:15;;;;;;;1.20;1.10;;;15.90;98.00;;;;;;5057384;28;20627;-66
2022/10/02 12:15:52;;;;;;;1.20;1.10;;;16.00;98.00;;;;;;5073721;28;20652;-66
2022/10/02 12:18:31;;;;;;;2.03;1.20;;;16.00;98.00;;;;;;5073903;28;20450;-66
2022/10/02 12:27:35;;;;;;;1.20;1.10;;;15.80;98.00;;;;;;5072580;28;20876;-66
2022/10/02 12:30:13;;;;;;;1.30;1.30;;;15.80;98.00;;;;;;5073300;28;20460;-66
2022/10/02 12:33:13;;;;;;;3.30;1.70;;;15.90;98.00;;;;;;5073316;28;20462;-66
2022/10/02 12:36:05;;;;;;;3.50;2.10;;;15.80;98.00;;;;;;5068068;28;20467;-66
2022/10/02 12:38:51;;;;;;;5.23;3.00;;;15.80;98.00;;;;;;5073133;28;20542;-66
2022/10/02 12:41:34;;;;;;;4.77;2.63;;;15.80;98.00;;;;;;5072134;28;20959;-66
2022/10/02 12:44:38;;;;;;;7.90;3.80;;;15.80;98.00;;;;;;5073057;28;20965;-66
2022/10/02 12:47:21;;;;;;;6.10;3.20;;;15.70;98.00;;;;;;5041235;28;20534;-66
2022/10/02 12:50:01;;;;;;;7.50;4.03;;;15.80;98.00;;;;;;5072976;28;20851;-66
2022/10/02 12:53:07;;;;;;;2.40;1.80;;;15.70;98.00;;;;;;5072969;28;20859;-66
2022/10/02 12:56:18;;;;;;;2.80;1.60;;;15.70;98.00;;;;;;5057068;28;20472;-66
2022/10/02 12:59:00;;;;;;;1.60;1.30;;;15.60;98.00;;;;;;5072810;28;20756;-66
2022/10/02 13:02:16;;;;;;;1.50;1.40;;;15.50;98.00;;;;;;5072571;28;20470;-66
2022/10/02 13:05:13;;;;;;;1.23;1.20;;;15.50;98.00;;;;;;5072573;28;20468;-66
2022/10/02 13:08:13;;;;;;;1.57;1.10;;;15.50;98.00;;;;;;5067318;28;20466;-66
2022/10/02 13:10:46;;;;;;;1.20;1.20;;;15.60;98.00;;;;;;5067052;28;20880;-66
2022/10/02 13:13:42;;;;;;;1.30;1.30;;;15.60;98.00;;;;;;5072689;28;20458;-66
2022/10/02 13:16:19;;;;;;;2.10;1.70;;;15.60;98.00;;;;;;5072166;28;20543;-67
2022/10/02 13:19:04;;;;;;;1.40;1.30;;;15.40;98.00;;;;;;5072490;28;20458;-66
2022/10/02 13:21:42;;;;;;;1.20;1.20;;;15.20;98.00;;;;;;5072631;28;20937;-66
2022/10/02 13:24:31;;;;;;;1.50;1.30;;;15.20;98.00;;;;;;5070940;28;20475;-67
2022/10/02 13:27:08;;;;;;;3.40;2.03;;;15.20;98.00;;;;;;5064684;28;20528;-67
2022/10/02 13:30:02;;;;;;;16.50;7.40;;;15.30;98.00;;;;;;5065725;28;20561;-67
2022/10/02 13:32:53;;;;;;;2.90;2.30;;;15.30;98.00;;;;;;5063733;28;20473;-67
2022/10/02 13:35:39;;;;;;;1.20;1.10;;;15.20;98.00;;;;;;5063441;28;20563;-66
2022/10/02 13:38:24;;;;;;;2.00;1.90;;;15.20;98.00;;;;;;5059038;28;20976;-66
2022/10/02 13:41:03;;;;;;;2.10;1.43;;;15.20;98.00;;;;;;5065315;28;20521;-66
2022/10/02 13:43:42;;;;;;;1.53;1.40;;;15.30;98.00;;;;;;5065484;28;20462;-66
2022/10/02 13:46:22;;;;;;;1.50;1.30;;;15.40;98.00;;;;;;5055433;28;20876;-66
2022/10/02 13:49:01;;;;;;;1.77;1.40;;;15.40;98.00;;;;;;5068794;28;20495;-66
2022/10/02 13:51:37;;;;;;;2.00;1.60;;;15.50;98.00;;;;;;5069003;28;20511;-66
2022/10/02 13:54:47;;;;;;;1.53;1.50;;;15.60;98.00;;;;;;5062037;28;20455;-66
2022/10/02 13:57:26;;;;;;;2.13;1.37;;;15.60;98.00;;;;;;5051715;28;20456;-67
2022/10/02 14:00:04;;;;;;;1.33;1.30;;;15.60;98.00;;;;;;5066942;28;20471;-65
2022/10/02 14:02:48;;;;;;;1.50;1.27;;;15.60;98.00;;;;;;5065211;28;20456;-65
2022/10/02 14:05:30;;;;;;;1.80;1.10;;;15.70;98.00;;;;;;5063292;28;20452;-65
2022/10/02 14:08:35;;;;;;;1.40;1.17;;;15.60;98.00;;;;;;5069910;28;20450;-64
2022/10/02 14:11:15;;;;;;;1.40;1.40;;;15.70;98.00;;;;;;5040944;28;20508;-67